Time;durP1;ratioP1;P1;durP2;ratioP2;P2;SDS_P1;SDS_P2;PMS_P1;PMS_P2;Temp;Humidity;BMP_temperature;BMP_pressure;BME280_temperature;BME280_humidity;BME280_pressure;Samples;Min_cycle;Max_cycle;Signal;HPM_P1;HPM_P2
2020/12/31 00:00:17;;;;;;;15.80;8.75;;;0.90;99.90;;;;;;4962374;28;20046;-65
2020/12/31 00:02:43;;;;;;;15.90;7.70;;;0.90;99.90;;;;;;4963911;28;20081;-68
2020/12/31 00:05:10;;;;;;;9.02;7.60;;;0.90;99.90;;;;;;4962880;28;20455;-71
2020/12/31 00:07:36;;;;;;;9.93;7.07;;;0.90;99.90;;;;;;4961524;28;20047;-70
2020/12/31 00:10:03;;;;;;;10.20;7.55;;;0.90;99.90;;;;;;4963106;28;20395;-71
2020/12/31 00:12:30;;;;;;;11.60;7.45;;;0.90;99.90;;;;;;4962173;28;20050;-68
2020/12/31 00:14:57;;;;;;;13.15;7.72;;;0.90;99.90;;;;;;4962714;28;20549;-66
2020/12/31 00:17:23;;;;;;;11.23;7.07;;;0.90;99.90;;;;;;4967955;28;20577;-67
2020/12/31 00:19:49;;;;;;;12.55;6.82;;;0.90;99.90;;;;;;4962136;28;20043;-68
2020/12/31 00:22:16;;;;;;;9.63;6.65;;;0.90;99.90;;;;;;4963630;28;20042;-65
2020/12/31 00:24:42;;;;;;;11.20;6.90;;;0.90;99.90;;;;;;4964337;28;20113;-69
2020/12/31 00:27:09;;;;;;;10.75;7.20;;;0.90;99.90;;;;;;4962920;28;20197;-67
2020/12/31 00:29:35;;;;;;;11.70;7.85;;;1.00;99.90;;;;;;4964352;28;20055;-71
2020/12/31 00:32:02;;;;;;;9.50;7.93;;;1.00;99.90;;;;;;4962914;28;20047;-68
2020/12/31 00:34:28;;;;;;;13.27;7.15;;;1.00;99.90;;;;;;4964571;28;20569;-66
2020/12/31 00:36:55;;;;;;;9.82;8.02;;;1.10;99.90;;;;;;4967373;28;20205;-71
2020/12/31 00:39:21;;;;;;;10.20;7.80;;;1.10;99.90;;;;;;4961710;28;20077;-68
2020/12/31 00:41:48;;;;;;;13.82;7.40;;;1.20;99.90;;;;;;4963650;28;20117;-68
2020/12/31 00:44:14;;;;;;;8.60;6.88;;;1.20;99.90;;;;;;4965413;28;20050;-67
2020/12/31 00:46:41;;;;;;;10.80;8.05;;;1.30;99.90;;;;;;4963960;28;20148;-66
2020/12/31 00:49:08;;;;;;;7.50;6.80;;;1.40;99.90;;;;;;4951273;28;20449;-69
2020/12/31 00:51:34;;;;;;;10.88;8.00;;;1.40;99.90;;;;;;4964237;28;20043;-72
2020/12/31 00:54:01;;;;;;;9.90;7.32;;;1.40;99.90;;;;;;4961956;28;20051;-65
2020/12/31 00:56:29;;;;;;;12.48;8.98;;;1.50;99.90;;;;;;4963974;28;20051;-68
2020/12/31 00:58:55;;;;;;;14.18;8.75;;;1.50;99.90;;;;;;4960887;28;20525;-66
2020/12/31 01:01:23;;;;;;;12.88;8.38;;;1.50;99.90;;;;;;4960662;28;20049;-68
2020/12/31 01:03:49;;;;;;;12.20;8.60;;;1.60;99.90;;;;;;4962159;28;20047;-71
2020/12/31 01:06:16;;;;;;;13.95;9.00;;;1.60;99.90;;;;;;4962812;28;20758;-65
2020/12/31 01:08:43;;;;;;;10.75;8.40;;;1.70;99.90;;;;;;4962852;28;20058;-68
2020/12/31 01:11:09;;;;;;;10.10;7.75;;;1.70;99.90;;;;;;4961426;28;20079;-67
2020/12/31 01:13:35;;;;;;;11.95;9.00;;;1.70;99.90;;;;;;4963226;28;20046;-68
2020/12/31 01:16:02;;;;;;;12.82;8.57;;;1.70;99.90;;;;;;4963139;28;20121;-66
2020/12/31 01:18:28;;;;;;;11.32;8.30;;;1.60;99.90;;;;;;4963127;28;20045;-67
2020/12/31 01:20:55;;;;;;;14.23;8.60;;;1.60;99.90;;;;;;4959125;28;20089;-68
2020/12/31 01:23:21;;;;;;;10.32;7.47;;;1.60;99.90;;;;;;4960870;28;20043;-66
2020/12/31 01:25:50;;;;;;;8.55;6.72;;;1.60;99.90;;;;;;4966550;28;21063;-69
2020/12/31 01:28:17;;;;;;;8.48;6.55;;;1.60;99.90;;;;;;4962382;28;20753;-66
2020/12/31 01:30:44;;;;;;;7.97;6.13;;;1.70;99.90;;;;;;4962089;28;20482;-67
2020/12/31 01:33:11;;;;;;;9.13;6.65;;;1.70;99.90;;;;;;4962597;28;20117;-71
2020/12/31 01:35:37;;;;;;;10.10;6.75;;;1.70;99.90;;;;;;4963100;28;20343;-69
2020/12/31 01:38:04;;;;;;;9.00;6.82;;;1.80;99.90;;;;;;4962382;28;20066;-66
2020/12/31 01:40:30;;;;;;;9.38;5.90;;;1.80;99.90;;;;;;4961968;28;20042;-69
2020/12/31 01:42:57;;;;;;;9.73;6.68;;;1.80;99.90;;;;;;4968300;28;20055;-67
2020/12/31 01:45:23;;;;;;;7.15;6.45;;;1.80;99.90;;;;;;4961421;28;20159;-70
2020/12/31 01:47:50;;;;;;;10.18;8.07;;;1.80;99.90;;;;;;4963200;28;20101;-69
2020/12/31 01:50:18;;;;;;;6.47;5.80;;;1.90;99.90;;;;;;4961677;28;20051;-71
2020/12/31 01:52:46;;;;;;;10.55;8.18;;;1.90;99.90;;;;;;4958578;28;20070;-69
2020/12/31 01:55:13;;;;;;;9.48;6.22;;;2.00;99.90;;;;;;4960819;28;20053;-72
2020/12/31 01:57:39;;;;;;;8.95;6.68;;;2.00;99.90;;;;;;4961861;28;20039;-68
2020/12/31 02:00:06;;;;;;;7.88;5.95;;;2.10;99.90;;;;;;4967857;28;20051;-65
2020/12/31 02:02:38;;;;;;;11.48;7.57;;;2.10;99.90;;;;;;4962911;28;20043;-69
2020/12/31 02:05:05;;;;;;;9.52;7.68;;;2.10;99.90;;;;;;4960658;28;20050;-72
2020/12/31 02:07:31;;;;;;;8.27;6.85;;;2.10;99.90;;;;;;4959866;28;20043;-69
2020/12/31 02:09:58;;;;;;;9.50;6.93;;;2.10;99.90;;;;;;4962201;28;20047;-68
2020/12/31 02:12:25;;;;;;;10.27;7.47;;;2.10;99.90;;;;;;4961365;28;20047;-68
2020/12/31 02:14:52;;;;;;;7.85;6.78;;;2.20;99.90;;;;;;4962235;28;20042;-66
2020/12/31 02:17:19;;;;;;;11.05;7.30;;;2.20;99.90;;;;;;4960719;28;20193;-69
2020/12/31 02:19:46;;;;;;;10.30;8.57;;;2.20;99.90;;;;;;4962122;28;20054;-66
2020/12/31 02:22:14;;;;;;;13.20;8.02;;;2.10;99.90;;;;;;4960039;28;20130;-69
2020/12/31 02:24:40;;;;;;;9.48;8.27;;;2.20;99.90;;;;;;4960946;28;20577;-69
2020/12/31 02:27:07;;;;;;;10.20;8.52;;;2.20;99.90;;;;;;4961075;28;20070;-66
2020/12/31 02:29:34;;;;;;;11.70;8.75;;;2.20;99.90;;;;;;4963964;28;20047;-67
2020/12/31 02:32:00;;;;;;;10.40;7.47;;;2.20;99.90;;;;;;4961248;28;20502;-68
2020/12/31 02:34:27;;;;;;;11.60;8.52;;;2.20;99.90;;;;;;4962211;28;20463;-66
2020/12/31 02:36:54;;;;;;;12.70;8.20;;;2.20;99.90;;;;;;4962003;28;20082;-67
2020/12/31 02:39:20;;;;;;;10.80;8.57;;;2.20;99.90;;;;;;4966904;28;20051;-71
2020/12/31 02:41:47;;;;;;;9.75;8.35;;;2.20;99.90;;;;;;4959946;28;20138;-66
2020/12/31 02:44:14;;;;;;;11.02;9.52;;;2.20;99.90;;;;;;4964923;28;20065;-66
2020/12/31 02:46:41;;;;;;;13.95;9.98;;;2.30;99.90;;;;;;4961427;28;20144;-71
2020/12/31 02:49:08;;;;;;;15.25;10.20;;;2.30;99.90;;;;;;4960019;28;20062;-70
2020/12/31 02:51:35;;;;;;;14.43;8.27;;;2.30;99.90;;;;;;4960661;28;20074;-69
2020/12/31 02:54:01;;;;;;;14.30;8.57;;;2.30;99.90;;;;;;4961353;28;20058;-72
2020/12/31 02:56:28;;;;;;;15.93;8.63;;;2.30;99.90;;;;;;4962544;28;20442;-69
2020/12/31 02:58:55;;;;;;;11.15;8.05;;;2.20;99.90;;;;;;4959885;28;20043;-68
2020/12/31 03:01:21;;;;;;;12.10;9.38;;;2.20;99.90;;;;;;4959107;28;20100;-73
2020/12/31 03:03:49;;;;;;;13.90;9.73;;;2.20;99.90;;;;;;4960943;28;20736;-69
2020/12/31 03:06:16;;;;;;;13.82;9.88;;;2.20;99.90;;;;;;4962796;28;20074;-68
2020/12/31 03:08:42;;;;;;;10.80;8.82;;;2.20;99.90;;;;;;4960914;28;20055;-71
2020/12/31 03:11:22;;;;;;;11.02;8.75;;;2.30;99.90;;;;;;4960748;28;20765;-70
2020/12/31 03:13:49;;;;;;;16.40;7.77;;;2.30;99.90;;;;;;4969941;28;20570;-66
2020/12/31 03:16:17;;;;;;;10.73;8.68;;;2.30;99.90;;;;;;4962781;28;20376;-68
2020/12/31 03:18:43;;;;;;;10.10;7.20;;;2.30;99.90;;;;;;4964017;28;20105;-65
2020/12/31 03:21:10;;;;;;;12.60;8.95;;;2.30;99.90;;;;;;4963109;28;20961;-69
2020/12/31 03:23:36;;;;;;;16.75;8.13;;;2.30;99.90;;;;;;4966301;28;20169;-66
2020/12/31 03:26:04;;;;;;;11.00;8.75;;;2.40;99.90;;;;;;4966751;28;20447;-66
2020/12/31 03:28:30;;;;;;;11.20;8.98;;;2.40;99.90;;;;;;4962612;28;20050;-71
2020/12/31 03:30:57;;;;;;;15.93;8.35;;;2.40;99.90;;;;;;4956900;28;20081;-66
2020/12/31 03:33:23;;;;;;;11.90;8.75;;;2.40;99.90;;;;;;4965270;28;20043;-67
2020/12/31 03:35:50;;;;;;;12.43;7.95;;;2.40;99.90;;;;;;4966722;28;20057;-69
2020/12/31 03:38:18;;;;;;;10.98;8.18;;;2.40;99.90;;;;;;4963986;28;20067;-67
2020/12/31 03:40:45;;;;;;;12.10;10.13;;;2.40;99.90;;;;;;4964310;28;20086;-71
2020/12/31 03:43:11;;;;;;;10.30;8.25;;;2.40;99.90;;;;;;4958653;28;20554;-67
2020/12/31 03:45:39;;;;;;;12.40;8.20;;;2.50;99.90;;;;;;4964229;28;20097;-70
2020/12/31 03:48:06;;;;;;;9.15;7.25;;;2.50;99.90;;;;;;4965915;28;20078;-66
2020/12/31 03:50:32;;;;;;;9.15;8.23;;;2.50;99.90;;;;;;4962550;28;20057;-70
2020/12/31 03:52:59;;;;;;;10.82;8.10;;;2.50;99.90;;;;;;4962897;28;20237;-66
2020/12/31 03:55:25;;;;;;;11.18;6.97;;;2.60;99.90;;;;;;4962365;28;20054;-69
2020/12/31 03:57:52;;;;;;;8.95;8.05;;;2.60;99.90;;;;;;4966129;28;20133;-66
2020/12/31 04:00:18;;;;;;;12.00;8.07;;;2.60;99.90;;;;;;4963363;28;20050;-69
2020/12/31 04:02:44;;;;;;;9.23;6.55;;;2.60;99.90;;;;;;4962941;28;20468;-69
2020/12/31 04:05:11;;;;;;;11.85;8.65;;;2.60;99.90;;;;;;4964860;28;20046;-67
2020/12/31 04:07:37;;;;;;;10.70;8.52;;;2.60;99.90;;;;;;4971122;28;20829;-72
2020/12/31 04:10:05;;;;;;;14.38;7.95;;;2.60;99.90;;;;;;4964598;28;20168;-66
2020/12/31 04:12:31;;;;;;;16.70;9.25;;;2.60;99.90;;;;;;4960512;28;20042;-66
2020/12/31 04:14:58;;;;;;;14.88;8.77;;;2.60;99.90;;;;;;4964772;28;20170;-71
2020/12/31 04:17:24;;;;;;;11.25;8.07;;;2.60;99.90;;;;;;4963578;28;20113;-67
2020/12/31 04:19:51;;;;;;;13.40;7.60;;;2.60;99.90;;;;;;4963969;28;20042;-66
2020/12/31 04:22:18;;;;;;;12.32;8.00;;;2.60;99.90;;;;;;4963343;28;20051;-71
2020/12/31 04:24:45;;;;;;;11.77;7.57;;;2.60;99.90;;;;;;4964510;28;20051;-68
2020/12/31 04:27:11;;;;;;;12.35;9.35;;;2.50;99.90;;;;;;4961875;28;20441;-65
2020/12/31 04:29:38;;;;;;;12.75;8.80;;;2.50;99.90;;;;;;4963548;28;20035;-71
2020/12/31 04:32:05;;;;;;;8.57;7.68;;;2.50;99.90;;;;;;4963950;28;20039;-68
2020/12/31 04:34:31;;;;;;;11.68;9.35;;;2.50;99.90;;;;;;4964711;28;20042;-65
2020/12/31 04:36:58;;;;;;;11.50;8.85;;;2.60;99.90;;;;;;4964533;28;20583;-71
2020/12/31 04:39:24;;;;;;;12.38;8.27;;;2.50;99.90;;;;;;4962780;28;20588;-66
2020/12/31 04:41:57;;;;;;;12.63;9.85;;;2.50;99.90;;;;;;4963648;28;20046;-65
2020/12/31 04:44:24;;;;;;;10.15;8.82;;;2.50;99.90;;;;;;4963683;28;20058;-67
2020/12/31 04:46:55;;;;;;;13.15;8.77;;;2.50;99.90;;;;;;4964240;28;20043;-70
2020/12/31 04:49:35;;;;;;;12.05;8.57;;;2.40;99.90;;;;;;4962018;28;20134;-69
2020/12/31 04:52:03;;;;;;;9.57;6.20;;;2.50;99.90;;;;;;4955607;28;20046;-70
2020/12/31 04:54:31;;;;;;;13.70;9.00;;;2.50;99.90;;;;;;4963761;28;20070;-68
2020/12/31 04:56:57;;;;;;;15.25;9.85;;;2.50;99.90;;;;;;4963679;28;20096;-70
2020/12/31 04:59:24;;;;;;;11.90;7.22;;;2.50;99.90;;;;;;4967699;28;20553;-68
2020/12/31 05:01:51;;;;;;;10.98;7.55;;;2.50;99.90;;;;;;4962765;28;20097;-66
2020/12/31 05:04:17;;;;;;;11.23;8.90;;;2.50;99.90;;;;;;4961516;28;20082;-67
2020/12/31 05:06:44;;;;;;;13.73;8.85;;;2.50;99.90;;;;;;4961719;28;20157;-66
2020/12/31 05:09:16;;;;;;;11.73;8.52;;;2.50;99.90;;;;;;4960471;28;20094;-69
2020/12/31 05:11:53;;;;;;;15.50;8.13;;;2.50;99.90;;;;;;4960239;28;20046;-69
2020/12/31 05:14:29;;;;;;;11.55;8.00;;;2.50;99.90;;;;;;4970834;28;20043;-65
2020/12/31 05:16:56;;;;;;;14.30;8.77;;;2.50;99.90;;;;;;4965311;28;20062;-69
2020/12/31 05:19:24;;;;;;;11.63;8.20;;;2.50;99.90;;;;;;4965523;28;20397;-67
2020/12/31 05:22:20;;;;;;;11.40;7.80;;;2.40;99.90;;;;;;4958002;28;20367;-68
2020/12/31 05:24:49;;;;;;;12.23;8.27;;;2.40;99.90;;;;;;4961454;28;20054;-65
2020/12/31 05:27:20;;;;;;;8.57;7.25;;;2.40;99.90;;;;;;4962899;28;20418;-67
2020/12/31 05:30:02;;;;;;;11.18;7.35;;;2.40;99.90;;;;;;4963250;28;20050;-68
2020/12/31 05:32:31;;;;;;;8.65;7.25;;;2.40;99.90;;;;;;4962418;28;20053;-68
2020/12/31 05:34:58;;;;;;;9.13;7.95;;;2.40;99.90;;;;;;4961278;28;20339;-67
2020/12/31 05:37:27;;;;;;;12.73;9.02;;;2.30;99.90;;;;;;4963447;28;20142;-65
2020/12/31 05:40:14;;;;;;;14.48;8.70;;;2.40;99.90;;;;;;4962867;28;20059;-66
2020/12/31 05:42:42;;;;;;;12.63;8.63;;;2.40;99.90;;;;;;4963286;28;20109;-68
2020/12/31 05:45:11;;;;;;;11.90;8.05;;;2.40;99.90;;;;;;4958543;28;20623;-68
2020/12/31 05:47:52;;;;;;;16.63;9.45;;;2.40;99.90;;;;;;4963556;28;20047;-68
2020/12/31 05:50:23;;;;;;;18.00;10.02;;;2.40;99.90;;;;;;4964276;28;20141;-68
2020/12/31 05:52:51;;;;;;;11.32;9.30;;;2.50;99.90;;;;;;4960785;28;20057;-67
2020/12/31 05:55:20;;;;;;;14.38;10.95;;;2.50;99.90;;;;;;4969109;28;20098;-68
2020/12/31 05:57:54;;;;;;;14.05;10.43;;;2.40;99.90;;;;;;4961090;28;20109;-69
2020/12/31 06:00:25;;;;;;;12.98;9.45;;;2.40;99.90;;;;;;4961221;28;20255;-66
2020/12/31 06:02:54;;;;;;;13.35;9.57;;;2.30;99.90;;;;;;4962598;28;20043;-67
2020/12/31 06:05:22;;;;;;;14.60;10.18;;;2.30;99.90;;;;;;4961618;28;20487;-68
2020/12/31 06:07:53;;;;;;;10.73;9.13;;;2.30;99.90;;;;;;4958917;28;20034;-67
2020/12/31 06:10:28;;;;;;;19.77;10.20;;;2.30;99.90;;;;;;4961616;28;20051;-68
2020/12/31 06:13:04;;;;;;;10.20;7.38;;;2.40;99.90;;;;;;4961235;28;20070;-68
2020/12/31 06:15:34;;;;;;;7.25;6.30;;;2.50;99.90;;;;;;4960818;28;20134;-68
2020/12/31 06:18:02;;;;;;;7.80;6.38;;;2.50;99.90;;;;;;4960186;28;20545;-66
2020/12/31 06:20:31;;;;;;;8.52;6.85;;;2.50;99.90;;;;;;4961020;28;20038;-69
2020/12/31 06:23:13;;;;;;;9.68;6.72;;;2.50;99.90;;;;;;4960814;28;20148;-68
2020/12/31 06:25:45;;;;;;;9.95;6.05;;;2.50;99.90;;;;;;4960382;28;20043;-69
2020/12/31 06:28:18;;;;;;;7.25;5.80;;;2.50;99.90;;;;;;4967383;28;20062;-67
2020/12/31 06:30:52;;;;;;;7.05;6.15;;;2.60;99.90;;;;;;4962756;28;20133;-67
2020/12/31 06:33:31;;;;;;;6.50;5.82;;;2.50;99.90;;;;;;4962027;28;20053;-70
2020/12/31 06:36:02;;;;;;;7.68;5.95;;;2.50;99.90;;;;;;4964477;28;20120;-68
2020/12/31 06:38:37;;;;;;;7.95;5.65;;;2.50;99.90;;;;;;4963691;28;20055;-66
2020/12/31 06:41:25;;;;;;;6.85;5.60;;;2.40;99.90;;;;;;4957816;28;20606;-67
2020/12/31 06:44:06;;;;;;;8.63;6.22;;;2.40;99.90;;;;;;4961724;28;20054;-66
2020/12/31 06:46:39;;;;;;;9.40;7.00;;;2.40;99.90;;;;;;4960451;28;20476;-67
2020/12/31 06:49:06;;;;;;;7.63;5.80;;;2.50;99.90;;;;;;4960600;28;20051;-68
2020/12/31 06:51:32;;;;;;;8.63;4.93;;;2.60;99.90;;;;;;4961826;28;20368;-66
2020/12/31 06:53:59;;;;;;;6.60;4.35;;;2.60;99.90;;;;;;4964497;28;20055;-66
2020/12/31 06:56:47;;;;;;;4.50;3.70;;;2.60;99.90;;;;;;4966501;28;20062;-68
2020/12/31 06:59:33;;;;;;;4.85;3.75;;;2.70;99.90;;;;;;4963061;28;20123;-70
2020/12/31 07:02:03;;;;;;;4.57;2.70;;;2.60;99.90;;;;;;4964473;28;20553;-70
2020/12/31 07:04:37;;;;;;;5.50;3.75;;;2.60;99.90;;;;;;4965535;28;20132;-69
2020/12/31 07:07:19;;;;;;;5.68;3.83;;;2.70;99.90;;;;;;4963077;28;20062;-66
2020/12/31 07:10:00;;;;;;;3.40;3.10;;;2.70;99.90;;;;;;4965106;28;20394;-68
2020/12/31 07:12:46;;;;;;;3.78;2.92;;;2.60;99.90;;;;;;4966574;28;20042;-66
2020/12/31 07:15:15;;;;;;;3.58;3.13;;;2.70;99.90;;;;;;4963184;28;20042;-65
2020/12/31 07:17:46;;;;;;;4.55;3.03;;;2.60;99.90;;;;;;4968147;28;20048;-70
2020/12/31 07:20:17;;;;;;;3.50;3.20;;;2.60;99.90;;;;;;4966622;28;20062;-70
2020/12/31 07:22:47;;;;;;;4.43;3.50;;;2.60;99.90;;;;;;4964430;28;20058;-65
2020/12/31 07:25:18;;;;;;;7.07;4.47;;;2.60;99.90;;;;;;4963275;28;20055;-67
2020/12/31 07:27:47;;;;;;;4.68;3.83;;;2.60;99.90;;;;;;4965665;28;20046;-66
2020/12/31 07:30:17;;;;;;;6.05;3.72;;;2.60;99.90;;;;;;4965352;28;20427;-65
2020/12/31 07:32:58;;;;;;;4.97;3.70;;;2.60;99.90;;;;;;4963982;28;20868;-65
2020/12/31 07:35:33;;;;;;;4.38;3.55;;;2.60;99.90;;;;;;4964394;28;20390;-68
2020/12/31 07:38:06;;;;;;;5.97;3.70;;;2.60;99.90;;;;;;4964833;28;20127;-69
2020/12/31 07:40:35;;;;;;;6.20;3.63;;;2.50;99.90;;;;;;4964625;28;20046;-65
2020/12/31 07:43:04;;;;;;;7.03;4.30;;;2.50;99.90;;;;;;4962724;28;20534;-69
2020/12/31 07:45:31;;;;;;;6.93;5.00;;;2.50;99.90;;;;;;4964889;28;20425;-68
2020/12/31 07:47:58;;;;;;;7.47;6.60;;;2.60;99.90;;;;;;4964239;28;20217;-66
2020/12/31 07:50:25;;;;;;;10.32;7.60;;;2.60;99.90;;;;;;4964391;28;20051;-68
2020/12/31 07:52:52;;;;;;;11.13;8.57;;;2.70;99.90;;;;;;4964395;28;20490;-68
2020/12/31 07:55:19;;;;;;;8.55;6.68;;;2.70;99.90;;;;;;4958966;28;20058;-68
2020/12/31 07:57:46;;;;;;;9.25;6.57;;;2.80;99.90;;;;;;4968669;28;20668;-71
2020/12/31 08:00:15;;;;;;;12.25;8.00;;;2.80;99.90;;;;;;4968924;28;20053;-65
2020/12/31 08:02:51;;;;;;;10.98;8.70;;;2.80;99.90;;;;;;4965130;28;20050;-65
2020/12/31 08:05:20;;;;;;;12.48;8.10;;;2.80;99.90;;;;;;4961159;28;20157;-66
2020/12/31 08:07:54;;;;;;;10.80;8.07;;;2.80;99.90;;;;;;4963280;28;20050;-68
2020/12/31 08:10:32;;;;;;;16.25;10.00;;;2.80;99.90;;;;;;4965201;28;20049;-69
2020/12/31 08:13:04;;;;;;;17.20;9.55;;;2.90;99.90;;;;;;4964659;28;20482;-68
2020/12/31 08:15:31;;;;;;;14.00;10.00;;;2.90;99.90;;;;;;4962207;28;20057;-69
2020/12/31 08:18:02;;;;;;;12.82;10.23;;;2.90;99.90;;;;;;4964017;28;20080;-67
2020/12/31 08:20:32;;;;;;;15.45;12.38;;;2.90;99.90;;;;;;4963853;28;20729;-67
2020/12/31 08:23:04;;;;;;;16.80;11.05;;;2.90;99.90;;;;;;4958077;28;20126;-69
2020/12/31 08:25:36;;;;;;;16.20;11.95;;;3.00;99.90;;;;;;4962330;28;20051;-69
2020/12/31 08:28:06;;;;;;;18.40;13.80;;;3.00;99.90;;;;;;4962150;28;20150;-67
2020/12/31 08:30:37;;;;;;;17.08;12.10;;;3.00;99.90;;;;;;4963179;28;20145;-69
2020/12/31 08:33:07;;;;;;;15.35;11.60;;;3.10;99.90;;;;;;4958955;28;20722;-65
2020/12/31 08:35:42;;;;;;;16.60;13.20;;;3.10;99.90;;;;;;4963924;28;20047;-69
2020/12/31 08:38:14;;;;;;;19.67;14.77;;;3.20;99.90;;;;;;4962580;28;20051;-67
2020/12/31 08:41:04;;;;;;;16.70;12.95;;;3.20;99.90;;;;;;4963401;28;20051;-67
2020/12/31 08:43:36;;;;;;;17.67;13.10;;;3.20;99.90;;;;;;4961860;28;20054;-69
2020/12/31 08:46:21;;;;;;;17.50;12.15;;;3.30;99.90;;;;;;4963897;28;20042;-70
2020/12/31 08:48:53;;;;;;;16.85;11.93;;;3.30;99.90;;;;;;4963205;28;20042;-66
2020/12/31 08:51:19;;;;;;;16.65;11.57;;;3.30;99.90;;;;;;4962801;28;20469;-69
2020/12/31 08:53:59;;;;;;;16.98;11.63;;;3.30;99.90;;;;;;4962455;28;20062;-67
2020/12/31 08:56:30;;;;;;;19.23;12.38;;;3.30;99.90;;;;;;4963758;28;20067;-68
2020/12/31 08:59:12;;;;;;;13.35;10.85;;;3.30;99.90;;;;;;4959759;28;20110;-66
2020/12/31 09:01:41;;;;;;;14.85;10.10;;;3.40;99.90;;;;;;4960925;28;20072;-66
2020/12/31 09:04:20;;;;;;;14.00;10.00;;;3.40;99.90;;;;;;4963314;28;20076;-66
2020/12/31 09:06:48;;;;;;;10.65;8.32;;;3.40;99.90;;;;;;4967107;28;20422;-65
2020/12/31 09:09:19;;;;;;;15.13;9.20;;;3.30;99.90;;;;;;4962450;28;20054;-69
2020/12/31 09:12:08;;;;;;;11.20;9.73;;;3.30;99.90;;;;;;4962006;28;20126;-66
2020/12/31 09:14:37;;;;;;;14.32;9.00;;;3.30;99.90;;;;;;4961488;28;20368;-68
2020/12/31 09:17:23;;;;;;;11.88;9.88;;;3.30;99.90;;;;;;4965879;28;20831;-67
2020/12/31 09:19:50;;;;;;;13.13;9.73;;;3.20;99.90;;;;;;4945967;28;20047;-70
2020/12/31 09:22:17;;;;;;;14.57;9.15;;;3.20;99.90;;;;;;4962729;28;20051;-70
2020/12/31 09:24:44;;;;;;;13.32;10.57;;;3.20;99.90;;;;;;4963732;28;20769;-67
2020/12/31 09:27:10;;;;;;;10.55;9.38;;;3.20;99.90;;;;;;4960274;28;20062;-70
2020/12/31 09:29:37;;;;;;;13.32;11.10;;;3.20;99.90;;;;;;4962999;28;20074;-65
2020/12/31 09:32:03;;;;;;;13.85;10.07;;;3.20;99.90;;;;;;4961922;28;20394;-67
2020/12/31 09:34:30;;;;;;;12.60;10.18;;;3.20;99.90;;;;;;4963251;28;20153;-68
2020/12/31 09:37:00;;;;;;;15.38;10.55;;;3.30;99.90;;;;;;4965239;28;20050;-66
2020/12/31 09:39:27;;;;;;;13.85;10.50;;;3.40;99.90;;;;;;4961701;28;20050;-66
2020/12/31 09:41:53;;;;;;;15.07;10.52;;;3.40;99.90;;;;;;4961969;28;20143;-71
2020/12/31 09:44:20;;;;;;;11.98;9.18;;;3.50;99.90;;;;;;4962731;28;20146;-66
2020/12/31 09:46:46;;;;;;;9.43;8.40;;;3.50;99.90;;;;;;4962029;28;20124;-66
2020/12/31 09:49:14;;;;;;;13.02;9.07;;;3.50;99.90;;;;;;4961356;28;20511;-71
2020/12/31 09:51:40;;;;;;;11.10;8.68;;;3.50;99.90;;;;;;4961996;28;20455;-68
2020/12/31 09:54:07;;;;;;;17.02;9.85;;;3.60;99.90;;;;;;4962802;28;20819;-67
2020/12/31 09:56:33;;;;;;;12.15;9.32;;;3.60;99.90;;;;;;4962779;28;20624;-71
2020/12/31 09:58:59;;;;;;;12.32;10.38;;;3.60;99.90;;;;;;4961535;28;20047;-68
2020/12/31 10:01:26;;;;;;;12.98;10.20;;;3.70;99.90;;;;;;4961291;28;20105;-66
2020/12/31 10:03:53;;;;;;;14.05;9.73;;;3.70;99.90;;;;;;4962345;28;20154;-68
2020/12/31 10:06:20;;;;;;;12.13;10.32;;;3.80;99.90;;;;;;4959989;28;20145;-66
2020/12/31 10:08:50;;;;;;;17.40;10.15;;;3.80;99.90;;;;;;4960381;28;20069;-68
2020/12/31 10:11:18;;;;;;;13.98;10.00;;;3.80;99.90;;;;;;4961764;28;20074;-68
2020/12/31 10:13:44;;;;;;;14.35;10.45;;;3.80;99.90;;;;;;4962414;28;20810;-66
2020/12/31 10:16:11;;;;;;;11.98;10.52;;;3.80;99.90;;;;;;4963033;28;20101;-70
2020/12/31 10:18:37;;;;;;;13.70;10.75;;;3.90;99.90;;;;;;4962350;28;20054;-67
2020/12/31 10:21:04;;;;;;;11.50;10.32;;;3.90;99.90;;;;;;4961512;28;20054;-66
2020/12/31 10:23:31;;;;;;;14.43;11.38;;;3.90;99.90;;;;;;4962345;28;20082;-71
2020/12/31 10:25:58;;;;;;;15.00;10.73;;;4.00;99.90;;;;;;4962486;28;20109;-67
2020/12/31 10:28:24;;;;;;;17.63;11.80;;;4.00;99.90;;;;;;4961188;28;20700;-67
2020/12/31 10:30:51;;;;;;;20.30;11.82;;;4.00;99.90;;;;;;4962777;28;20112;-68
2020/12/31 10:33:17;;;;;;;13.82;11.75;;;4.00;99.90;;;;;;4961926;28;20086;-66
2020/12/31 10:35:44;;;;;;;14.18;12.25;;;4.10;99.90;;;;;;4961755;28;20457;-68
2020/12/31 10:38:10;;;;;;;13.98;11.30;;;4.10;99.90;;;;;;4961160;28;20712;-67
2020/12/31 10:40:37;;;;;;;15.90;13.32;;;4.20;99.90;;;;;;4959622;28;20078;-66
2020/12/31 10:43:03;;;;;;;15.70;11.70;;;4.20;99.90;;;;;;4963828;28;20051;-66
2020/12/31 10:45:30;;;;;;;18.02;12.23;;;4.20;99.90;;;;;;4961774;28;20062;-66
2020/12/31 10:47:57;;;;;;;18.40;12.93;;;4.20;99.90;;;;;;4960911;28;20062;-68
2020/12/31 10:50:23;;;;;;;15.20;11.98;;;4.20;99.90;;;;;;4961275;28;20038;-68
2020/12/31 10:52:49;;;;;;;17.27;13.48;;;4.20;99.90;;;;;;4961182;28;20047;-67
2020/12/31 10:55:16;;;;;;;16.23;12.63;;;4.30;99.90;;;;;;4955468;28;20133;-66
2020/12/31 10:57:43;;;;;;;17.30;11.45;;;4.30;99.90;;;;;;4958681;28;20109;-70
2020/12/31 11:00:09;;;;;;;19.70;12.18;;;4.40;99.90;;;;;;4959604;28;20051;-69
2020/12/31 11:02:36;;;;;;;13.98;12.52;;;4.40;99.90;;;;;;4959816;28;20042;-69
2020/12/31 11:05:05;;;;;;;15.00;10.95;;;4.50;99.90;;;;;;4956854;28;20411;-68
2020/12/31 11:07:32;;;;;;;15.35;11.43;;;4.50;99.90;;;;;;4958935;28;20420;-69
2020/12/31 11:09:59;;;;;;;17.08;11.68;;;4.50;99.90;;;;;;4960470;28;20054;-68
2020/12/31 11:12:26;;;;;;;11.10;9.85;;;4.50;99.90;;;;;;4960917;28;20125;-68
2020/12/31 11:14:52;;;;;;;16.05;11.38;;;4.50;99.90;;;;;;4958172;28;20646;-68
2020/12/31 11:17:19;;;;;;;14.02;10.50;;;4.50;99.90;;;;;;4959128;28;20097;-71
2020/12/31 11:19:45;;;;;;;12.05;10.55;;;4.50;99.90;;;;;;4960762;28;20047;-68
2020/12/31 11:22:11;;;;;;;12.07;10.13;;;4.50;99.90;;;;;;4961281;28;20546;-66
2020/12/31 11:24:38;;;;;;;11.70;8.95;;;4.50;99.90;;;;;;4960090;28;20046;-69
2020/12/31 11:27:06;;;;;;;11.93;8.80;;;4.50;99.90;;;;;;4954796;28;20058;-68
2020/12/31 11:29:32;;;;;;;8.90;6.90;;;4.50;99.90;;;;;;4959431;28;20518;-68
2020/12/31 11:32:03;;;;;;;8.88;7.78;;;4.50;99.90;;;;;;4958986;28;20182;-68
2020/12/31 11:34:29;;;;;;;;;;;4.50;99.90;;;;;;4961509;28;20053;-68
2020/12/31 11:36:56;;;;;;;10.88;8.32;;;4.50;99.90;;;;;;4959276;28;20345;-69
2020/12/31 11:39:23;;;;;;;7.88;7.07;;;4.50;99.90;;;;;;4960581;28;21510;-65
2020/12/31 11:41:54;;;;;;;13.00;7.75;;;4.50;99.90;;;;;;4966838;28;20046;-70
2020/12/31 11:44:22;;;;;;;8.18;6.50;;;4.40;99.90;;;;;;4965274;28;20431;-66
2020/12/31 11:46:49;;;;;;;11.57;7.72;;;4.40;99.90;;;;;;4967334;28;20136;-69
2020/12/31 11:49:19;;;;;;;9.77;7.35;;;4.40;99.90;;;;;;4961642;28;21925;-68
2020/12/31 11:51:45;;;;;;;10.63;8.40;;;4.40;99.90;;;;;;4964879;28;20047;-69
2020/12/31 11:54:12;;;;;;;12.07;8.05;;;4.40;99.90;;;;;;4962812;28;20071;-67
2020/12/31 11:56:39;;;;;;;12.00;8.63;;;4.30;99.90;;;;;;4962242;28;20067;-68
2020/12/31 11:59:06;;;;;;;11.20;7.97;;;4.30;99.90;;;;;;4962125;28;20233;-67
2020/12/31 12:01:32;;;;;;;9.90;7.97;;;4.30;99.90;;;;;;4962036;28;20054;-68
2020/12/31 12:03:59;;;;;;;8.82;7.93;;;4.30;99.90;;;;;;4961866;28;20047;-70
2020/12/31 12:06:26;;;;;;;10.20;7.88;;;4.40;99.90;;;;;;4962112;28;20165;-68
2020/12/31 12:08:52;;;;;;;13.57;7.47;;;4.30;99.90;;;;;;4962006;28;20109;-71
2020/12/31 12:11:27;;;;;;;9.82;7.60;;;4.30;99.90;;;;;;4962058;28;20777;-67
2020/12/31 12:13:53;;;;;;;8.93;7.22;;;4.30;99.90;;;;;;4962863;28;20672;-69
2020/12/31 12:16:20;;;;;;;12.07;8.18;;;4.20;99.90;;;;;;4964418;28;20137;-68
2020/12/31 12:18:47;;;;;;;9.95;8.52;;;4.20;99.90;;;;;;4960834;28;20134;-68
2020/12/31 12:21:18;;;;;;;9.13;7.80;;;4.20;99.90;;;;;;4956870;28;20374;-68
2020/12/31 12:23:45;;;;;;;11.07;9.32;;;4.10;99.90;;;;;;4961450;28;20073;-69
2020/12/31 12:26:16;;;;;;;13.88;10.25;;;4.10;99.90;;;;;;4965508;28;20047;-67
2020/12/31 12:28:42;;;;;;;10.60;9.20;;;4.00;99.90;;;;;;4959761;28;20047;-67
2020/12/31 12:31:08;;;;;;;10.10;8.55;;;4.00;99.90;;;;;;4958665;28;20046;-69
2020/12/31 12:33:35;;;;;;;10.32;8.70;;;4.00;99.90;;;;;;4965106;28;20058;-69
2020/12/31 12:36:02;;;;;;;10.63;9.55;;;4.00;99.90;;;;;;4961158;28;20051;-67
2020/12/31 12:38:28;;;;;;;10.85;8.68;;;4.00;99.90;;;;;;4960905;28;20178;-70
2020/12/31 12:40:55;;;;;;;13.65;10.57;;;4.00;99.90;;;;;;4962079;28;20050;-68
2020/12/31 12:43:21;;;;;;;14.50;10.80;;;3.90;99.90;;;;;;4959127;28;20102;-68
2020/12/31 12:45:48;;;;;;;12.65;9.90;;;3.90;99.90;;;;;;4961321;28;20065;-72
2020/12/31 12:48:14;;;;;;;15.40;12.18;;;3.90;99.90;;;;;;4962273;28;20074;-69
2020/12/31 12:50:40;;;;;;;14.60;12.02;;;3.90;99.90;;;;;;4960364;28;20051;-68
2020/12/31 12:53:07;;;;;;;15.70;12.23;;;3.90;99.90;;;;;;4959366;28;20172;-68
2020/12/31 12:55:33;;;;;;;13.90;11.90;;;3.90;99.90;;;;;;4960858;28;20049;-70